sensor_id;sensor_type;location;lat;lon;timestamp;temperature;humidity
66257;DHT22;53049;43.446;3.698;2024-03-02T00:02:13;11.20;99.90
66257;DHT22;53049;43.446;3.698;2024-03-02T00:04:39;11.10;99.90
66257;DHT22;53049;43.446;3.698;2024-03-02T00:07:06;11.00;99.90
66257;DHT22;53049;43.446;3.698;2024-03-02T00:09:33;10.90;99.90
66257;DHT22;53049;43.446;3.698;2024-03-02T00:12:00;10.90;99.90
66257;DHT22;53049;43.446;3.698;2024-03-02T00:14:29;10.90;99.90
66257;DHT22;53049;43.446;3.698;2024-03-02T00:16:56;10.90;99.90
66257;DHT22;53049;43.446;3.698;2024-03-02T00:19:22;11.00;99.90
66257;DHT22;53049;43.446;3.698;2024-03-02T00:21:47;11.10;99.90
66257;DHT22;53049;43.446;3.698;2024-03-02T00:24:32;11.20;99.90
66257;DHT22;53049;43.446;3.698;2024-03-02T00:26:59;11.20;99.90
66257;DHT22;53049;43.446;3.698;2024-03-02T00:29:26;11.30;99.90
66257;DHT22;53049;43.446;3.698;2024-03-02T00:31:53;11.30;99.90
66257;DHT22;53049;43.446;3.698;2024-03-02T00:34:19;11.30;99.90
66257;DHT22;53049;43.446;3.698;2024-03-02T00:36:45;11.30;99.90
66257;DHT22;53049;43.446;3.698;2024-03-02T00:39:12;11.40;99.90
66257;DHT22;53049;43.446;3.698;2024-03-02T00:41:41;11.50;99.90
66257;DHT22;53049;43.446;3.698;2024-03-02T00:44:12;11.40;99.90
66257;DHT22;53049;43.446;3.698;2024-03-02T00:46:42;11.30;99.90
66257;DHT22;53049;43.446;3.698;2024-03-02T00:49:23;11.20;99.90
66257;DHT22;53049;43.446;3.698;2024-03-02T00:51:51;11.00;99.90
66257;DHT22;53049;43.446;3.698;2024-03-02T00:54:22;11.00;99.90
66257;DHT22;53049;43.446;3.698;2024-03-02T00:56:50;10.90;99.90
66257;DHT22;53049;43.446;3.698;2024-03-02T00:59:16;10.90;99.90
66257;DHT22;53049;43.446;3.698;2024-03-02T01:01:42;10.90;99.90
66257;DHT22;53049;43.446;3.698;2024-03-02T01:04:08;10.90;99.90
66257;DHT22;53049;43.446;3.698;2024-03-02T01:06:35;10.90;99.90
66257;DHT22;53049;43.446;3.698;2024-03-02T01:09:01;10.90;99.90
66257;DHT22;53049;43.446;3.698;2024-03-02T01:11:28;11.00;99.90
66257;DHT22;53049;43.446;3.698;2024-03-02T01:13:53;11.00;99.90
66257;DHT22;53049;43.446;3.698;2024-03-02T01:16:19;10.90;99.90
66257;DHT22;53049;43.446;3.698;2024-03-02T01:18:45;10.90;99.90
66257;DHT22;53049;43.446;3.698;2024-03-02T01:21:11;10.90;99.90
66257;DHT22;53049;43.446;3.698;2024-03-02T01:23:37;10.80;99.90
66257;DHT22;53049;43.446;3.698;2024-03-02T01:26:03;10.80;99.90
66257;DHT22;53049;43.446;3.698;2024-03-02T01:28:29;10.70;99.90
66257;DHT22;53049;43.446;3.698;2024-03-02T01:30:54;10.70;99.90
66257;DHT22;53049;43.446;3.698;2024-03-02T01:33:20;10.60;99.90
66257;DHT22;53049;43.446;3.698;2024-03-02T01:35:46;10.70;99.90
66257;DHT22;53049;43.446;3.698;2024-03-02T01:38:13;10.70;99.90
66257;DHT22;53049;43.446;3.698;2024-03-02T01:40:39;10.70;99.90
66257;DHT22;53049;43.446;3.698;2024-03-02T01:43:05;10.60;99.90
66257;DHT22;53049;43.446;3.698;2024-03-02T01:45:31;10.50;99.90
66257;DHT22;53049;43.446;3.698;2024-03-02T01:47:57;10.40;99.90
66257;DHT22;53049;43.446;3.698;2024-03-02T01:50:33;10.30;99.90
66257;DHT22;53049;43.446;3.698;2024-03-02T01:53:00;10.30;99.90
66257;DHT22;53049;43.446;3.698;2024-03-02T01:55:26;10.30;99.90
66257;DHT22;53049;43.446;3.698;2024-03-02T01:57:54;10.20;99.90
66257;DHT22;53049;43.446;3.698;2024-03-02T02:00:20;10.10;99.90
66257;DHT22;53049;43.446;3.698;2024-03-02T02:02:47;10.10;99.90
66257;DHT22;53049;43.446;3.698;2024-03-02T02:05:13;10.00;99.90
66257;DHT22;53049;43.446;3.698;2024-03-02T02:07:40;10.00;99.90
66257;DHT22;53049;43.446;3.698;2024-03-02T02:10:07;10.00;99.90
66257;DHT22;53049;43.446;3.698;2024-03-02T02:12:33;10.00;99.90
66257;DHT22;53049;43.446;3.698;2024-03-02T02:14:59;10.00;99.90
66257;DHT22;53049;43.446;3.698;2024-03-02T02:17:24;10.10;99.90
66257;DHT22;53049;43.446;3.698;2024-03-02T02:19:50;10.10;99.90
66257;DHT22;53049;43.446;3.698;2024-03-02T02:22:16;10.20;99.90
66257;DHT22;53049;43.446;3.698;2024-03-02T02:24:42;10.20;99.90
66257;DHT22;53049;43.446;3.698;2024-03-02T02:27:08;10.30;99.90
66257;DHT22;53049;43.446;3.698;2024-03-02T02:29:34;10.30;99.90
66257;DHT22;53049;43.446;3.698;2024-03-02T02:32:00;10.40;99.90
66257;DHT22;53049;43.446;3.698;2024-03-02T02:34:26;10.40;99.90
66257;DHT22;53049;43.446;3.698;2024-03-02T02:36:52;10.40;99.90
66257;DHT22;53049;43.446;3.698;2024-03-02T02:39:19;10.50;99.90
66257;DHT22;53049;43.446;3.698;2024-03-02T02:41:46;10.40;99.90
66257;DHT22;53049;43.446;3.698;2024-03-02T02:44:11;10.50;99.90
66257;DHT22;53049;43.446;3.698;2024-03-02T02:46:38;10.40;99.90
66257;DHT22;53049;43.446;3.698;2024-03-02T02:49:04;10.30;99.90
66257;DHT22;53049;43.446;3.698;2024-03-02T02:51:30;10.20;99.90
66257;DHT22;53049;43.446;3.698;2024-03-02T02:53:56;10.20;99.90
66257;DHT22;53049;43.446;3.698;2024-03-02T02:56:22;10.10;99.90
66257;DHT22;53049;43.446;3.698;2024-03-02T02:58:48;10.10;99.90
66257;DHT22;53049;43.446;3.698;2024-03-02T03:01:14;10.10;99.90
66257;DHT22;53049;43.446;3.698;2024-03-02T03:03:40;10.10;99.90
66257;DHT22;53049;43.446;3.698;2024-03-02T03:06:06;10.10;99.90
66257;DHT22;53049;43.446;3.698;2024-03-02T03:08:31;10.00;99.90
66257;DHT22;53049;43.446;3.698;2024-03-02T03:10:57;9.90;99.90
66257;DHT22;53049;43.446;3.698;2024-03-02T03:13:23;9.90;99.90
66257;DHT22;53049;43.446;3.698;2024-03-02T03:15:48;9.80;99.90
66257;DHT22;53049;43.446;3.698;2024-03-02T03:18:14;9.80;99.90
66257;DHT22;53049;43.446;3.698;2024-03-02T03:20:40;9.90;99.90
66257;DHT22;53049;43.446;3.698;2024-03-02T03:23:06;10.00;99.90
66257;DHT22;53049;43.446;3.698;2024-03-02T03:25:31;10.10;99.90
66257;DHT22;53049;43.446;3.698;2024-03-02T03:27:57;10.10;99.90
66257;DHT22;53049;43.446;3.698;2024-03-02T03:30:23;10.10;99.90
66257;DHT22;53049;43.446;3.698;2024-03-02T03:32:48;10.00;99.90
66257;DHT22;53049;43.446;3.698;2024-03-02T03:35:14;9.90;99.90
66257;DHT22;53049;43.446;3.698;2024-03-02T03:37:41;9.90;99.90
66257;DHT22;53049;43.446;3.698;2024-03-02T03:40:07;9.80;99.90
66257;DHT22;53049;43.446;3.698;2024-03-02T03:42:38;9.70;99.90
66257;DHT22;53049;43.446;3.698;2024-03-02T03:45:05;9.60;99.90
66257;DHT22;53049;43.446;3.698;2024-03-02T03:47:33;9.50;99.90
66257;DHT22;53049;43.446;3.698;2024-03-02T03:49:59;9.40;99.90
66257;DHT22;53049;43.446;3.698;2024-03-02T03:52:25;9.20;99.90
66257;DHT22;53049;43.446;3.698;2024-03-02T03:54:50;9.20;99.90
66257;DHT22;53049;43.446;3.698;2024-03-02T03:57:16;9.20;99.90
66257;DHT22;53049;43.446;3.698;2024-03-02T03:59:43;9.20;99.90
66257;DHT22;53049;43.446;3.698;2024-03-02T04:02:09;9.30;99.90
66257;DHT22;53049;43.446;3.698;2024-03-02T04:04:37;9.20;99.90
66257;DHT22;53049;43.446;3.698;2024-03-02T04:07:02;9.20;99.90
66257;DHT22;53049;43.446;3.698;2024-03-02T04:09:28;9.10;99.90
66257;DHT22;53049;43.446;3.698;2024-03-02T04:11:54;9.00;99.90
66257;DHT22;53049;43.446;3.698;2024-03-02T04:14:19;9.00;99.90
66257;DHT22;53049;43.446;3.698;2024-03-02T04:16:45;9.00;99.90
66257;DHT22;53049;43.446;3.698;2024-03-02T04:19:11;9.00;99.90
66257;DHT22;53049;43.446;3.698;2024-03-02T04:21:36;9.00;99.90
66257;DHT22;53049;43.446;3.698;2024-03-02T04:24:02;9.00;99.90
66257;DHT22;53049;43.446;3.698;2024-03-02T04:26:28;9.00;99.90
66257;DHT22;53049;43.446;3.698;2024-03-02T04:28:54;9.10;99.90
66257;DHT22;53049;43.446;3.698;2024-03-02T04:31:20;9.10;99.90
66257;DHT22;53049;43.446;3.698;2024-03-02T04:33:46;9.10;99.90
66257;DHT22;53049;43.446;3.698;2024-03-02T04:36:12;9.20;99.90
66257;DHT22;53049;43.446;3.698;2024-03-02T04:38:38;9.10;99.90
66257;DHT22;53049;43.446;3.698;2024-03-02T04:41:07;9.20;99.90
66257;DHT22;53049;43.446;3.698;2024-03-02T04:43:33;9.20;99.90
66257;DHT22;53049;43.446;3.698;2024-03-02T04:46:00;9.20;99.90
66257;DHT22;53049;43.446;3.698;2024-03-02T04:48:26;9.20;99.90
66257;DHT22;53049;43.446;3.698;2024-03-02T04:50:51;9.20;99.90
66257;DHT22;53049;43.446;3.698;2024-03-02T04:53:17;9.20;99.90
66257;DHT22;53049;43.446;3.698;2024-03-02T04:55:45;9.20;99.90
66257;DHT22;53049;43.446;3.698;2024-03-02T04:58:30;9.30;99.90
66257;DHT22;53049;43.446;3.698;2024-03-02T05:00:55;9.30;99.90
66257;DHT22;53049;43.446;3.698;2024-03-02T05:03:22;9.20;99.90
66257;DHT22;53049;43.446;3.698;2024-03-02T05:05:47;9.20;99.90
66257;DHT22;53049;43.446;3.698;2024-03-02T05:08:13;9.20;99.90
66257;DHT22;53049;43.446;3.698;2024-03-02T05:10:39;9.20;99.90
66257;DHT22;53049;43.446;3.698;2024-03-02T05:13:04;9.30;99.90
66257;DHT22;53049;43.446;3.698;2024-03-02T05:15:30;9.50;99.90
66257;DHT22;53049;43.446;3.698;2024-03-02T05:17:55;9.60;99.90
66257;DHT22;53049;43.446;3.698;2024-03-02T05:20:22;9.60;99.90
66257;DHT22;53049;43.446;3.698;2024-03-02T05:22:48;9.70;99.90
66257;DHT22;53049;43.446;3.698;2024-03-02T05:25:15;9.60;99.90
66257;DHT22;53049;43.446;3.698;2024-03-02T05:27:40;9.70;99.90
66257;DHT22;53049;43.446;3.698;2024-03-02T05:30:07;9.70;99.90
66257;DHT22;53049;43.446;3.698;2024-03-02T05:32:33;9.70;99.90
66257;DHT22;53049;43.446;3.698;2024-03-02T05:34:59;9.90;99.90
66257;DHT22;53049;43.446;3.698;2024-03-02T05:37:24;10.00;99.90
66257;DHT22;53049;43.446;3.698;2024-03-02T05:39:50;10.00;99.90
66257;DHT22;53049;43.446;3.698;2024-03-02T05:42:16;10.10;99.90
66257;DHT22;53049;43.446;3.698;2024-03-02T05:44:44;10.10;99.90
66257;DHT22;53049;43.446;3.698;2024-03-02T05:47:09;10.10;99.90
66257;DHT22;53049;43.446;3.698;2024-03-02T05:49:35;10.00;99.90
66257;DHT22;53049;43.446;3.698;2024-03-02T05:52:01;10.00;99.90
66257;DHT22;53049;43.446;3.698;2024-03-02T05:54:27;10.10;99.90
66257;DHT22;53049;43.446;3.698;2024-03-02T05:56:52;10.10;99.90
66257;DHT22;53049;43.446;3.698;2024-03-02T05:59:18;10.20;99.90
66257;DHT22;53049;43.446;3.698;2024-03-02T06:04:10;10.40;99.90
66257;DHT22;53049;43.446;3.698;2024-03-02T06:06:36;10.30;99.90
66257;DHT22;53049;43.446;3.698;2024-03-02T06:09:02;10.30;99.90
66257;DHT22;53049;43.446;3.698;2024-03-02T06:11:33;10.30;99.90
66257;DHT22;53049;43.446;3.698;2024-03-02T06:13:59;10.40;99.90
66257;DHT22;53049;43.446;3.698;2024-03-02T06:16:25;10.40;99.90
66257;DHT22;53049;43.446;3.698;2024-03-02T06:18:50;10.40;99.90
66257;DHT22;53049;43.446;3.698;2024-03-02T06:21:16;10.50;99.90
66257;DHT22;53049;43.446;3.698;2024-03-02T06:23:44;10.50;99.90
66257;DHT22;53049;43.446;3.698;2024-03-02T06:26:09;10.60;99.90
66257;DHT22;53049;43.446;3.698;2024-03-02T06:28:35;10.70;99.90
66257;DHT22;53049;43.446;3.698;2024-03-02T06:31:02;10.70;99.90
66257;DHT22;53049;43.446;3.698;2024-03-02T06:33:27;10.70;99.90
66257;DHT22;53049;43.446;3.698;2024-03-02T06:35:54;10.80;99.90
66257;DHT22;53049;43.446;3.698;2024-03-02T06:38:19;10.80;99.90
66257;DHT22;53049;43.446;3.698;2024-03-02T06:40:45;10.90;99.90
66257;DHT22;53049;43.446;3.698;2024-03-02T06:43:11;10.90;99.90
66257;DHT22;53049;43.446;3.698;2024-03-02T06:45:37;10.90;99.90
66257;DHT22;53049;43.446;3.698;2024-03-02T06:48:03;11.00;99.90
66257;DHT22;53049;43.446;3.698;2024-03-02T06:50:29;11.00;99.90
66257;DHT22;53049;43.446;3.698;2024-03-02T06:52:55;11.10;99.90
66257;DHT22;53049;43.446;3.698;2024-03-02T06:55:23;11.10;99.90
66257;DHT22;53049;43.446;3.698;2024-03-02T06:57:52;11.10;99.90
66257;DHT22;53049;43.446;3.698;2024-03-02T07:00:18;11.10;99.90
66257;DHT22;53049;43.446;3.698;2024-03-02T07:02:45;11.10;99.90
66257;DHT22;53049;43.446;3.698;2024-03-02T07:05:12;11.20;99.90
66257;DHT22;53049;43.446;3.698;2024-03-02T07:07:38;11.10;99.90
66257;DHT22;53049;43.446;3.698;2024-03-02T07:10:06;11.10;99.90
66257;DHT22;53049;43.446;3.698;2024-03-02T07:12:35;11.10;99.90
66257;DHT22;53049;43.446;3.698;2024-03-02T07:15:02;11.00;99.90
66257;DHT22;53049;43.446;3.698;2024-03-02T07:17:28;11.00;99.90
66257;DHT22;53049;43.446;3.698;2024-03-02T07:19:53;10.90;99.90
66257;DHT22;53049;43.446;3.698;2024-03-02T07:22:19;11.00;99.90
66257;DHT22;53049;43.446;3.698;2024-03-02T07:24:45;11.00;99.90
66257;DHT22;53049;43.446;3.698;2024-03-02T07:27:12;10.90;99.90
66257;DHT22;53049;43.446;3.698;2024-03-02T07:29:38;10.90;99.90
66257;DHT22;53049;43.446;3.698;2024-03-02T07:32:05;10.90;99.90
66257;DHT22;53049;43.446;3.698;2024-03-02T07:34:31;10.90;99.90
66257;DHT22;53049;43.446;3.698;2024-03-02T07:36:57;10.90;99.90
66257;DHT22;53049;43.446;3.698;2024-03-02T07:39:24;10.90;99.90
66257;DHT22;53049;43.446;3.698;2024-03-02T07:41:50;10.90;99.90
66257;DHT22;53049;43.446;3.698;2024-03-02T07:44:16;10.80;99.90
66257;DHT22;53049;43.446;3.698;2024-03-02T07:46:45;10.90;99.90
66257;DHT22;53049;43.446;3.698;2024-03-02T07:49:20;10.90;99.90
66257;DHT22;53049;43.446;3.698;2024-03-02T07:51:46;10.90;99.90
66257;DHT22;53049;43.446;3.698;2024-03-02T07:54:11;11.00;99.90
66257;DHT22;53049;43.446;3.698;2024-03-02T07:56:37;11.00;99.90
66257;DHT22;53049;43.446;3.698;2024-03-02T07:59:04;11.00;99.90
66257;DHT22;53049;43.446;3.698;2024-03-02T08:01:33;11.10;99.90
66257;DHT22;53049;43.446;3.698;2024-03-02T08:04:02;11.20;99.90
66257;DHT22;53049;43.446;3.698;2024-03-02T08:06:31;11.30;99.90
66257;DHT22;53049;43.446;3.698;2024-03-02T08:08:58;11.30;99.90
66257;DHT22;53049;43.446;3.698;2024-03-02T08:11:24;11.30;99.90
66257;DHT22;53049;43.446;3.698;2024-03-02T08:13:50;11.40;99.90
66257;DHT22;53049;43.446;3.698;2024-03-02T08:16:17;11.40;99.90
66257;DHT22;53049;43.446;3.698;2024-03-02T08:18:47;11.40;99.90
66257;DHT22;53049;43.446;3.698;2024-03-02T08:21:13;11.40;99.90
66257;DHT22;53049;43.446;3.698;2024-03-02T08:23:39;11.40;99.90
66257;DHT22;53049;43.446;3.698;2024-03-02T08:26:06;11.30;99.90
66257;DHT22;53049;43.446;3.698;2024-03-02T08:28:32;11.30;99.90
66257;DHT22;53049;43.446;3.698;2024-03-02T08:30:58;11.40;99.90
66257;DHT22;53049;43.446;3.698;2024-03-02T08:33:24;11.40;99.90
66257;DHT22;53049;43.446;3.698;2024-03-02T08:35:50;11.50;99.90
66257;DHT22;53049;43.446;3.698;2024-03-02T08:38:15;11.50;99.90
66257;DHT22;53049;43.446;3.698;2024-03-02T08:40:41;11.60;99.90
66257;DHT22;53049;43.446;3.698;2024-03-02T08:43:07;11.60;99.90
66257;DHT22;53049;43.446;3.698;2024-03-02T08:45:33;11.70;99.90
66257;DHT22;53049;43.446;3.698;2024-03-02T08:48:00;11.70;99.90
66257;DHT22;53049;43.446;3.698;2024-03-02T08:50:25;11.80;99.90
66257;DHT22;53049;43.446;3.698;2024-03-02T08:52:51;11.80;99.90
66257;DHT22;53049;43.446;3.698;2024-03-02T08:55:17;11.80;99.90
66257;DHT22;53049;43.446;3.698;2024-03-02T08:57:42;11.90;99.90
66257;DHT22;53049;43.446;3.698;2024-03-02T09:00:08;11.90;99.90
66257;DHT22;53049;43.446;3.698;2024-03-02T09:02:34;12.00;99.90
66257;DHT22;53049;43.446;3.698;2024-03-02T09:05:01;12.00;99.90
66257;DHT22;53049;43.446;3.698;2024-03-02T09:07:26;12.10;99.90
66257;DHT22;53049;43.446;3.698;2024-03-02T09:09:52;12.10;99.90
66257;DHT22;53049;43.446;3.698;2024-03-02T09:12:18;12.20;99.90
66257;DHT22;53049;43.446;3.698;2024-03-02T09:14:44;12.20;99.90
66257;DHT22;53049;43.446;3.698;2024-03-02T09:17:10;12.30;99.90
66257;DHT22;53049;43.446;3.698;2024-03-02T09:19:37;12.30;99.90
66257;DHT22;53049;43.446;3.698;2024-03-02T09:22:03;12.50;99.90
66257;DHT22;53049;43.446;3.698;2024-03-02T09:24:31;12.50;99.90
66257;DHT22;53049;43.446;3.698;2024-03-02T09:26:56;12.60;99.90
66257;DHT22;53049;43.446;3.698;2024-03-02T09:29:22;12.70;99.90
66257;DHT22;53049;43.446;3.698;2024-03-02T09:31:48;12.70;99.90
66257;DHT22;53049;43.446;3.698;2024-03-02T09:34:15;12.80;99.90
66257;DHT22;53049;43.446;3.698;2024-03-02T09:36:41;12.90;99.90
66257;DHT22;53049;43.446;3.698;2024-03-02T09:39:10;13.00;99.90
66257;DHT22;53049;43.446;3.698;2024-03-02T09:41:36;13.00;99.90
66257;DHT22;53049;43.446;3.698;2024-03-02T09:44:03;13.00;99.90
66257;DHT22;53049;43.446;3.698;2024-03-02T09:46:29;13.00;99.90
66257;DHT22;53049;43.446;3.698;2024-03-02T09:48:55;13.10;99.90
66257;DHT22;53049;43.446;3.698;2024-03-02T09:51:21;13.10;99.90
66257;DHT22;53049;43.446;3.698;2024-03-02T09:53:47;13.00;99.90
66257;DHT22;53049;43.446;3.698;2024-03-02T09:56:14;13.10;99.90
66257;DHT22;53049;43.446;3.698;2024-03-02T09:58:41;13.20;99.90
66257;DHT22;53049;43.446;3.698;2024-03-02T10:01:07;13.40;99.90
66257;DHT22;53049;43.446;3.698;2024-03-02T10:03:34;13.60;99.90
66257;DHT22;53049;43.446;3.698;2024-03-02T10:06:18;13.50;99.90
66257;DHT22;53049;43.446;3.698;2024-03-02T10:08:44;13.40;99.90
66257;DHT22;53049;43.446;3.698;2024-03-02T10:11:10;13.50;99.90
66257;DHT22;53049;43.446;3.698;2024-03-02T10:13:36;13.40;99.90
66257;DHT22;53049;43.446;3.698;2024-03-02T10:16:12;13.50;99.90
66257;DHT22;53049;43.446;3.698;2024-03-02T10:18:37;13.50;99.90
66257;DHT22;53049;43.446;3.698;2024-03-02T10:21:29;13.60;99.90
66257;DHT22;53049;43.446;3.698;2024-03-02T10:24:12;13.70;99.90
66257;DHT22;53049;43.446;3.698;2024-03-02T10:26:38;13.70;99.90
66257;DHT22;53049;43.446;3.698;2024-03-02T10:29:10;13.80;99.90
66257;DHT22;53049;43.446;3.698;2024-03-02T10:31:57;13.80;99.90
66257;DHT22;53049;43.446;3.698;2024-03-02T10:34:24;13.90;99.90
66257;DHT22;53049;43.446;3.698;2024-03-02T10:36:50;14.10;99.90
66257;DHT22;53049;43.446;3.698;2024-03-02T10:39:28;14.20;99.90
66257;DHT22;53049;43.446;3.698;2024-03-02T10:41:55;14.30;99.90
66257;DHT22;53049;43.446;3.698;2024-03-02T10:44:45;14.30;99.90
66257;DHT22;53049;43.446;3.698;2024-03-02T10:47:40;14.30;99.90
66257;DHT22;53049;43.446;3.698;2024-03-02T10:50:07;14.40;99.90
66257;DHT22;53049;43.446;3.698;2024-03-02T10:52:46;14.50;99.90
66257;DHT22;53049;43.446;3.698;2024-03-02T10:55:35;14.50;99.90
66257;DHT22;53049;43.446;3.698;2024-03-02T10:58:11;14.50;99.90
66257;DHT22;53049;43.446;3.698;2024-03-02T11:00:55;14.50;99.90
66257;DHT22;53049;43.446;3.698;2024-03-02T11:03:40;14.50;99.90
66257;DHT22;53049;43.446;3.698;2024-03-02T11:06:24;14.50;99.90
66257;DHT22;53049;43.446;3.698;2024-03-02T11:09:19;14.50;99.90
66257;DHT22;53049;43.446;3.698;2024-03-02T11:11:53;14.50;99.90
66257;DHT22;53049;43.446;3.698;2024-03-02T11:14:24;14.50;99.90
66257;DHT22;53049;43.446;3.698;2024-03-02T11:16:51;14.50;99.90
66257;DHT22;53049;43.446;3.698;2024-03-02T11:19:18;14.50;99.90
66257;DHT22;53049;43.446;3.698;2024-03-02T11:21:46;14.50;99.90
66257;DHT22;53049;43.446;3.698;2024-03-02T11:24:50;14.50;99.90
66257;DHT22;53049;43.446;3.698;2024-03-02T11:28:19;14.50;99.90
66257;DHT22;53049;43.446;3.698;2024-03-02T11:33:06;14.40;99.90
66257;DHT22;53049;43.446;3.698;2024-03-02T11:35:56;14.50;99.90
66257;DHT22;53049;43.446;3.698;2024-03-02T11:38:33;14.40;99.90
66257;DHT22;53049;43.446;3.698;2024-03-02T11:41:05;14.40;99.90
66257;DHT22;53049;43.446;3.698;2024-03-02T11:43:32;14.40;99.90
66257;DHT22;53049;43.446;3.698;2024-03-02T11:46:29;14.40;99.90
66257;DHT22;53049;43.446;3.698;2024-03-02T11:49:36;14.40;99.90
66257;DHT22;53049;43.446;3.698;2024-03-02T11:52:07;14.40;99.90
66257;DHT22;53049;43.446;3.698;2024-03-02T11:54:39;14.40;99.90
66257;DHT22;53049;43.446;3.698;2024-03-02T11:57:27;14.30;99.90
66257;DHT22;53049;43.446;3.698;2024-03-02T11:59:59;14.40;99.90
66257;DHT22;53049;43.446;3.698;2024-03-02T12:02:39;14.40;99.90
66257;DHT22;53049;43.446;3.698;2024-03-02T12:05:19;14.40;99.90
66257;DHT22;53049;43.446;3.698;2024-03-02T12:08:18;14.40;99.90
66257;DHT22;53049;43.446;3.698;2024-03-02T12:11:24;14.40;99.90
66257;DHT22;53049;43.446;3.698;2024-03-02T12:13:54;14.40;99.90
66257;DHT22;53049;43.446;3.698;2024-03-02T12:16:25;14.50;99.90
66257;DHT22;53049;43.446;3.698;2024-03-02T12:19:06;14.50;99.90
66257;DHT22;53049;43.446;3.698;2024-03-02T12:22:13;14.50;99.90
66257;DHT22;53049;43.446;3.698;2024-03-02T12:25:03;14.50;99.90
66257;DHT22;53049;43.446;3.698;2024-03-02T12:27:28;14.40;99.90
66257;DHT22;53049;43.446;3.698;2024-03-02T12:30:09;14.40;99.90
66257;DHT22;53049;43.446;3.698;2024-03-02T12:33:22;14.40;99.90
66257;DHT22;53049;43.446;3.698;2024-03-02T12:35:55;14.30;99.90
66257;DHT22;53049;43.446;3.698;2024-03-02T12:38:44;14.30;99.90
66257;DHT22;53049;43.446;3.698;2024-03-02T12:41:10;14.30;99.90
66257;DHT22;53049;43.446;3.698;2024-03-02T12:43:51;14.30;99.90
66257;DHT22;53049;43.446;3.698;2024-03-02T12:49:22;14.10;99.90
66257;DHT22;53049;43.446;3.698;2024-03-02T12:51:48;14.10;99.90
66257;DHT22;53049;43.446;3.698;2024-03-02T12:54:36;14.10;99.90
66257;DHT22;53049;43.446;3.698;2024-03-02T12:57:50;14.10;99.90
66257;DHT22;53049;43.446;3.698;2024-03-02T13:00:39;14.10;99.90
66257;DHT22;53049;43.446;3.698;2024-03-02T13:03:29;14.10;99.90
66257;DHT22;53049;43.446;3.698;2024-03-02T13:05:55;14.10;99.90
66257;DHT22;53049;43.446;3.698;2024-03-02T13:08:46;14.00;99.90
66257;DHT22;53049;43.446;3.698;2024-03-02T13:11:13;14.00;99.90
66257;DHT22;53049;43.446;3.698;2024-03-02T13:16:53;14.00;99.90
66257;DHT22;53049;43.446;3.698;2024-03-02T13:19:18;14.00;99.90
66257;DHT22;53049;43.446;3.698;2024-03-02T13:21:46;14.00;99.90
66257;DHT22;53049;43.446;3.698;2024-03-02T13:24:12;14.00;99.90
66257;DHT22;53049;43.446;3.698;2024-03-02T13:26:38;14.10;99.90
66257;DHT22;53049;43.446;3.698;2024-03-02T13:29:05;14.10;99.90
66257;DHT22;53049;43.446;3.698;2024-03-02T13:31:59;14.20;99.90
66257;DHT22;53049;43.446;3.698;2024-03-02T13:34:40;14.30;99.90
66257;DHT22;53049;43.446;3.698;2024-03-02T13:37:17;14.30;99.90
66257;DHT22;53049;43.446;3.698;2024-03-02T13:39:43;14.30;99.90
66257;DHT22;53049;43.446;3.698;2024-03-02T13:42:10;14.40;99.90
66257;DHT22;53049;43.446;3.698;2024-03-02T13:44:37;14.50;99.90
66257;DHT22;53049;43.446;3.698;2024-03-02T13:47:03;14.50;99.90
66257;DHT22;53049;43.446;3.698;2024-03-02T13:49:30;14.50;99.90
66257;DHT22;53049;43.446;3.698;2024-03-02T13:52:00;14.50;99.90
66257;DHT22;53049;43.446;3.698;2024-03-02T13:54:29;14.50;99.90
66257;DHT22;53049;43.446;3.698;2024-03-02T13:56:56;14.50;99.90
66257;DHT22;53049;43.446;3.698;2024-03-02T13:59:23;14.50;99.90
66257;DHT22;53049;43.446;3.698;2024-03-02T14:01:48;14.50;99.90
66257;DHT22;53049;43.446;3.698;2024-03-02T14:04:15;14.50;99.90
66257;DHT22;53049;43.446;3.698;2024-03-02T14:06:42;14.50;99.90
66257;DHT22;53049;43.446;3.698;2024-03-02T14:09:09;14.50;99.90
66257;DHT22;53049;43.446;3.698;2024-03-02T14:11:34;14.50;99.90
66257;DHT22;53049;43.446;3.698;2024-03-02T14:14:01;14.50;99.90
66257;DHT22;53049;43.446;3.698;2024-03-02T14:16:28;14.60;99.90
66257;DHT22;53049;43.446;3.698;2024-03-02T14:18:54;14.60;99.90
66257;DHT22;53049;43.446;3.698;2024-03-02T14:21:19;14.60;99.90
66257;DHT22;53049;43.446;3.698;2024-03-02T14:23:45;14.60;99.90
66257;DHT22;53049;43.446;3.698;2024-03-02T14:26:11;14.60;99.90
66257;DHT22;53049;43.446;3.698;2024-03-02T14:28:36;14.60;99.90
66257;DHT22;53049;43.446;3.698;2024-03-02T14:31:02;14.60;99.90
66257;DHT22;53049;43.446;3.698;2024-03-02T14:33:28;14.60;99.90
66257;DHT22;53049;43.446;3.698;2024-03-02T14:35:54;14.60;99.90
66257;DHT22;53049;43.446;3.698;2024-03-02T14:38:20;14.70;99.90
66257;DHT22;53049;43.446;3.698;2024-03-02T14:40:45;14.60;99.90
66257;DHT22;53049;43.446;3.698;2024-03-02T14:43:11;14.60;99.90
66257;DHT22;53049;43.446;3.698;2024-03-02T14:45:37;14.60;99.90
66257;DHT22;53049;43.446;3.698;2024-03-02T14:48:03;14.60;99.90
66257;DHT22;53049;43.446;3.698;2024-03-02T14:50:29;14.50;99.90
66257;DHT22;53049;43.446;3.698;2024-03-02T14:52:55;14.60;99.90
66257;DHT22;53049;43.446;3.698;2024-03-02T14:55:23;14.50;99.90
66257;DHT22;53049;43.446;3.698;2024-03-02T14:57:49;14.40;99.90
66257;DHT22;53049;43.446;3.698;2024-03-02T15:00:15;14.40;99.90
66257;DHT22;53049;43.446;3.698;2024-03-02T15:02:41;14.40;99.90
66257;DHT22;53049;43.446;3.698;2024-03-02T15:05:07;14.40;99.90
66257;DHT22;53049;43.446;3.698;2024-03-02T15:07:33;14.30;99.90
66257;DHT22;53049;43.446;3.698;2024-03-02T15:09:58;14.30;99.90
66257;DHT22;53049;43.446;3.698;2024-03-02T15:12:24;14.20;99.90
66257;DHT22;53049;43.446;3.698;2024-03-02T15:14:50;14.10;99.90
66257;DHT22;53049;43.446;3.698;2024-03-02T15:17:16;14.10;99.90
66257;DHT22;53049;43.446;3.698;2024-03-02T15:19:43;14.10;99.90
66257;DHT22;53049;43.446;3.698;2024-03-02T15:22:09;14.00;99.90
66257;DHT22;53049;43.446;3.698;2024-03-02T15:24:35;14.00;99.90
66257;DHT22;53049;43.446;3.698;2024-03-02T15:27:01;13.90;99.90
66257;DHT22;53049;43.446;3.698;2024-03-02T15:29:31;13.90;99.90
66257;DHT22;53049;43.446;3.698;2024-03-02T15:31:57;13.90;99.90
66257;DHT22;53049;43.446;3.698;2024-03-02T15:34:23;13.80;99.90
66257;DHT22;53049;43.446;3.698;2024-03-02T15:36:51;13.80;99.90
66257;DHT22;53049;43.446;3.698;2024-03-02T15:39:17;13.80;99.90
66257;DHT22;53049;43.446;3.698;2024-03-02T15:41:44;13.80;99.90
66257;DHT22;53049;43.446;3.698;2024-03-02T15:44:10;13.70;99.90
66257;DHT22;53049;43.446;3.698;2024-03-02T15:46:36;13.70;99.90
66257;DHT22;53049;43.446;3.698;2024-03-02T15:49:02;13.70;99.90
66257;DHT22;53049;43.446;3.698;2024-03-02T15:51:28;13.70;99.90
66257;DHT22;53049;43.446;3.698;2024-03-02T15:53:54;13.60;99.90
66257;DHT22;53049;43.446;3.698;2024-03-02T15:56:20;13.60;99.90